Flight Track Log - Related Links

Times and Time Zones

All times are in EDT time to prevent confusion due to time zone crossing. See the DAL6234 flight status page for this flight to view local times or setup timezone preferences in your user account.

Time Position Orientation Groundspeed Altitude Reporting Facility
EDT Latitude Longitude Course Direction KTS MPH feet Rate Location/Type
Mon 06:04:29 PM 40.7500 -73.8000 37° Northeast 190 219 2,400  Level New York TRACON
Mon 06:05:29 PM 40.8000 -73.7500 37° Northeast 238 274 5,200 2,550 Climbing New York TRACON
Mon 06:06:29 PM 40.8667 -73.8167 323° Northwest 277 319 7,500 2,474 Climbing New York TRACON
Mon 06:07:23 PM 40.9000 -73.8833 303° West 281 323 9,900 1,250 Climbing New York TRACON
Mon 06:08:29 PM 40.9500 -73.9833 304° West 273 314 10,000 48 Climbing New York TRACON
Mon 06:09:29 PM 41.0000 -74.0500 315° West 275 316 10,000  Level New York TRACON
Mon 06:10:29 PM 41.0500 -74.1333 309° West 279 321 10,000  Level New York TRACON
Mon 06:11:29 PM 41.1000 -74.2000 315° West 273 314 10,000  Level New York TRACON
Mon 06:12:29 PM 41.1500 -74.2833 309° West 274 315 10,000  Level New York TRACON
Mon 06:13:29 PM 41.2167 -74.3500 323° Northwest 285 328 10,000  Level New York TRACON
Mon 06:14:29 PM 41.2667 -74.4167 315° West 291 335 10,000  Level New York TRACON
Mon 06:16:00 PM 41.3462 -74.5079 314° West  Level FlightAware Approximate
Mon 06:20:12 PM 41.5544 -74.8847 301° West 289 333 10,000  Level New York Center
Mon 06:21:10 PM 41.5992 -74.9764 303° West 289 333 10,000  Level New York Center
Mon 06:22:10 PM 41.6358 -75.0508 303° West 283 326 10,000  Level New York Center
Mon 06:23:00 PM 41.6278 -75.0353 301° West  Level FlightAware Approximate
Mon 06:23:11 PM 41.6844 -75.1483 304° West 283 326 10,000  Level New York Center
Mon 06:24:00 PM 41.6636 -75.1150 301° West  Level FlightAware Approximate
Mon 06:24:13 PM 41.7269 -75.2344 303° West 283 326 10,000  Level New York Center
Mon 06:25:12 PM 41.7675 -75.3206 302° West 283 326 10,000  Level New York Center
Mon 06:26:13 PM 41.7933 -75.4031 293° West 275 316 10,000  Level New York Center
Mon 06:27:10 PM 41.8167 -75.5019 288° West 275 316 10,000  Level New York Center
Mon 06:28:10 PM 41.8522 -75.5992 296° West 269 310 10,000  Level New York Center
Mon 06:29:11 PM 41.8967 -75.6806 306° West 269 310 10,000  Level New York Center
Mon 06:30:12 PM 41.9433 -75.7619 308° West 276 318 10,000  Level New York Center
Mon 06:31:12 PM 41.9878 -75.8436 306° West 281 323 10,000  Level New York Center
Mon 06:32:10 PM 42.0364 -75.9256 309° West 281 323 10,000  Level New York Center
Mon 06:33:11 PM 42.0828 -76.0072 307° West 281 323 10,000  Level New York Center
Mon 06:34:11 PM 42.1292 -76.0892 307° West 281 323 10,000  Level New York Center
Mon 06:35:12 PM 42.1981 -76.1311 336° Northwest 271 312 10,000  Level New York Center
Mon 06:36:17 PM 42.2947 -76.1231 North 315 362 10,000  Level Boston Center
Mon 06:37:11 PM 42.3764 -76.1139 North 310 357 10,000  Level Boston Center
Mon 06:38:11 PM 42.4622 -76.1047 North 310 357 10,000  Level Boston Center
Mon 06:39:12 PM 42.5458 -76.0956 North 312 359 10,000 -98 Level Boston Center
Mon 06:40:13 PM 42.6333 -76.0981 359° North 309 356 9,800 -744 Descending Boston Center
Mon 06:41:13 PM 42.7097 -76.1222 347° North 284 327 8,500 -1,475 Descending Boston Center
Mon 06:42:15 PM 42.7861 -76.1439 348° North 274 315 6,800 -1,688 Descending Boston Center
Mon 06:43:21 PM 42.8686 -76.1742 345° North 267 307 4,900 -1,339 Descending Boston Center
Mon 06:44:16 PM 42.9286 -76.1892 350° North 259 298 4,100 -672 Descending Boston Center
Mon 06:45:17 PM 42.9967 -76.2106 347° North 226 260 3,600 -621 Descending Boston Center
Mon 06:46:12 PM 43.0397 -76.2331 339° North 183 211 2,900 -672 Descending Boston Center
Mon 06:47:13 PM 43.0767 -76.2467 345° North 129 148 2,300 -609 Descending Boston Center
Mon 06:48:20 PM 43.1050 -76.2086 44° Northeast 146 168 1,600 -694 Descending Boston Center
Mon 06:49:14 PM 43.1069 -76.1547 87° East 153 176 900 -778 Descending Boston Center

Login

Don't have an account? Register now (free) for customized features, flight alerts, and more!